CDT,Max TemperatureF,Mean TemperatureF,Min TemperatureF,Max Dew PointF,MeanDew PointF,Min DewpointF,Max Humidity, Mean Humidity, Min Humidity, Max Sea Level PressureIn, Mean Sea Level PressureIn, Min Sea Level PressureIn, Max VisibilityMiles, Mean VisibilityMiles, Min VisibilityMiles, Max Wind SpeedMPH, Mean Wind SpeedMPH, Max Gust SpeedMPH,PrecipitationIn, CloudCover, Events, WindDirDegrees
2013-3-1,37,35,33,34,32,28,93,87,81,30.15,30.10,30.07,10,5,2,12,6,,0.00,8,Snow,309
2013-3-2,35,34,32,28,25,18,87,72,52,30.23,30.19,30.13,10,10,5,18,10,24,0.00,8,Rain-Snow,325
2013-3-3,42,33,24,30,22,18,80,60,39,30.23,30.16,30.08,10,10,10,9,4,,0.00,3,,257
2013-3-4,59,49,39,41,31,25,76,53,34,30.10,29.91,29.78,10,10,7,18,8,24,0.03,5,Rain,104
2013-3-5,48,42,35,43,33,21,87,73,52,30.11,29.92,29.75,10,9,3,29,9,41,0.04,7,Snow,298
2013-3-6,46,39,30,27,25,23,80,62,46,30.35,30.28,30.11,10,10,10,21,13,30,0.00,5,Snow,326
2013-3-7,50,38,26,30,27,23,87,68,40,30.43,30.37,30.33,10,10,10,8,3,,0.00,1,,58
2013-3-8,59,44,30,32,29,25,87,58,29,30.45,30.34,30.23,10,10,7,13,6,16,0.00,0,,69
2013-3-9,71,56,42,36,33,28,66,42,25,30.22,30.07,29.92,10,10,10,16,8,23,0.00,2,,125
2013-3-10,66,58,50,54,46,36,94,67,39,29.92,29.81,29.70,10,9,3,29,14,37,0.25,5,Rain,165
2013-3-11,53,46,37,50,36,30,94,75,65,30.02,29.87,29.74,10,10,2,16,9,24,0.00,7,,248
2013-3-12,55,42,30,30,28,23,87,59,33,30.21,30.11,30.02,10,10,10,16,5,21,0.00,2,,282
2013-3-13,48,39,30,27,22,18,75,51,30,30.42,30.35,30.21,10,10,10,20,9,25,0.00,2,,317
2013-3-14,51,38,24,32,26,19,87,59,38,30.42,30.31,30.13,10,10,10,15,3,,0.00,4,Rain,159
2013-3-15,75,54,32,52,41,27,87,59,38,30.12,29.94,29.78,10,10,10,20,5,29,0.00,0,,200
2013-3-16,71,58,46,50,45,37,76,59,43,29.99,29.86,29.75,10,9,5,18,14,28,0.00,2,,285
2013-3-17,46,42,39,41,38,36,93,84,71,30.06,29.92,29.74,10,8,2,18,13,29,0.45,8,Thunderstorm,38
2013-3-18,53,45,37,46,41,34,93,82,62,30.01,29.79,29.66,10,8,2,20,9,28,0.65,6,Thunderstorm,277
2013-3-19,53,44,35,36,24,14,87,49,22,30.22,30.16,30.02,10,10,2,13,5,20,0.00,1,,327
2013-3-20,48,40,30,32,25,16,87,60,37,30.25,30.17,30.10,10,10,10,16,5,22,0.00,1,,321
2013-3-21,42,32,23,23,17,12,80,51,29,30.14,30.07,29.99,10,10,10,10,3,,0.00,2,,7
2013-3-22,44,40,35,28,26,23,75,56,46,30.04,30.01,29.96,10,10,7,12,7,,0.00,8,Snow,72
2013-3-23,57,49,41,41,32,27,76,56,41,30.01,29.91,29.75,10,10,4,17,8,21,0.03,8,Rain,41
2013-3-24,46,40,35,41,37,28,93,83,70,29.82,29.63,29.47,10,8,1,25,13,37,0.13,8,Snow-Thunderstorm,327
2013-3-25,42,38,33,32,28,25,87,71,56,30.20,30.00,29.82,10,9,2,22,16,30,0.00,8,Snow,287
2013-3-26,48,40,32,32,27,23,87,67,40,30.37,30.29,30.20,10,10,5,12,8,18,0.00,4,Snow,296
2013-3-27,51,38,26,36,27,23,93,63,35,30.42,30.36,30.31,10,10,5,8,1,,0.00,1,,232
2013-3-28,62,52,41,41,34,30,81,56,32,30.38,30.31,30.25,10,10,10,8,3,,0.03,7,Rain,88
2013-3-29,59,52,46,50,45,39,88,77,62,30.26,30.23,30.18,10,8,2,13,6,,0.47,7,Rain,74
2013-3-30,55,48,41,50,47,37,100,89,72,30.21,30.09,29.93,10,3,0,12,4,,0.25,8,Fog-Rain,103
2013-3-31,66,58,51,55,50,46,94,80,52,29.98,29.91,29.87,10,6,0,10,2,,0.00,4,Fog,226